Pelican — WDC4616 — position and weather

sailwx.info

Track history (hours):
 
Tides and Currents Weather Stations Pressure Air Temp Water Temp Dewpoint Dewpoint Depression Visibility Wind Speed Wind Dir Waves Ship Positions

Pelican

Owner: Scherba Jr., Stephen, Seattle, WA. More information available from US FCC via Universal Licensing System and Coast Guard Vessel Documentation Center.

Last reported at 2016-Aug-23 18:21 UTC. Time now 2016-Aug-29 08:53 UTC.
Position N 50°20' W 125°26'.

Length 16 m; draft 1.6 m.

Type: Pleasure craft. MMSI: 367027560.

Date/timePositionNaut miles runAvg speedWind from/ knotsBaromVisibWave heightAir tempDewpointWater temp
2016-Aug-23 18:21N 50°20' W 125°26'8 9.5
2016-Aug-23 17:34N 50°13' W 125°22'8 8.3
2016-Aug-23 16:33N 50°06' W 125°17'  
2016-Aug-19 02:10N 50°04' W 125°14'3 4.9
2016-Aug-19 01:33N 50°01' W 125°13'8 8.3
2016-Aug-19 00:33N 49°56' W 125°02'9 8.4
2016-Aug-18 23:32N 49°52' W 124°50'8 8.5
2016-Aug-18 22:33N 49°49' W 124°38'8 8.3
2016-Aug-18 21:33N 49°45' W 124°27'8 8.1
2016-Aug-18 20:33N 49°41' W 124°16'8 8.0
2016-Aug-18 19:33N 49°38' W 124°04'2 0.1
2016-Aug-18 04:30N 49°38' W 124°02'0 0.0
2016-Aug-16 19:09N 49°38' W 124°02'0 0.0
2016-Aug-15 22:13N 49°38' W 124°02'0 0.0
2016-Aug-15 21:13N 49°38' W 124°02'0 0.0
2016-Aug-15 02:22N 49°38' W 124°02'5 5.8
2016-Aug-15 01:33N 49°33' W 124°03'8 8.0
2016-Aug-15 00:34N 49°26' W 124°00'8 8.3
2016-Aug-14 23:34N 49°18' W 123°56'8 7.6
2016-Aug-14 22:33N 49°10' W 123°55'  
Track history (hours):
 
Tides and Currents Weather Stations Pressure Air Temp Water Temp Dewpoint Dewpoint Depression Visibility Wind Speed Wind Dir Waves Ship Positions

Pelican

Owner: Scherba Jr., Stephen, Seattle, WA. More information available from US FCC via Universal Licensing System and Coast Guard Vessel Documentation Center.

Last reported at 2016-Aug-23 18:21 UTC. Time now 2016-Aug-29 08:53 UTC.
Position N 50°20' W 125°26'.

Length 16 m; draft 1.6 m.

Type: Pleasure craft. MMSI: 367027560.

Date/timePositionNaut miles runAvg speedWind from/ knotsBaromVisibWave heightAir tempDewpointWater temp
2016-Aug-23 18:21N 50°20' W 125°26'8 9.5
2016-Aug-23 17:34N 50°13' W 125°22'8 8.3
2016-Aug-23 16:33N 50°06' W 125°17'  
2016-Aug-19 02:10N 50°04' W 125°14'3 4.9
2016-Aug-19 01:33N 50°01' W 125°13'8 8.3
2016-Aug-19 00:33N 49°56' W 125°02'9 8.4
2016-Aug-18 23:32N 49°52' W 124°50'8 8.5
2016-Aug-18 22:33N 49°49' W 124°38'8 8.3
2016-Aug-18 21:33N 49°45' W 124°27'8 8.1
2016-Aug-18 20:33N 49°41' W 124°16'8 8.0
2016-Aug-18 19:33N 49°38' W 124°04'2 0.1
2016-Aug-18 04:30N 49°38' W 124°02'0 0.0
2016-Aug-16 19:09N 49°38' W 124°02'0 0.0
2016-Aug-15 22:13N 49°38' W 124°02'0 0.0
2016-Aug-15 21:13N 49°38' W 124°02'0 0.0
2016-Aug-15 02:22N 49°38' W 124°02'5 5.8
2016-Aug-15 01:33N 49°33' W 124°03'8 8.0
2016-Aug-15 00:34N 49°26' W 124°00'8 8.3
2016-Aug-14 23:34N 49°18' W 123°56'8 7.6
2016-Aug-14 22:33N 49°10' W 123°55'  

Dump ship's entire track history